createdAt,value
2016-05-01T00:01:19.028Z,1014.85
2016-05-01T00:04:35.194Z,1014.85
2016-05-01T00:07:45.515Z,1014.83
2016-05-01T00:10:45.899Z,1014.98
2016-05-01T00:13:58.157Z,1014.87
2016-05-01T00:17:10.102Z,1014.98
2016-05-01T00:20:21.801Z,1015.12
2016-05-01T00:23:37.980Z,1015.08
2016-05-01T00:26:41.442Z,1015.08
2016-05-01T00:29:53.809Z,1015.14
2016-05-01T00:33:05.551Z,1015.3
2016-05-01T00:36:17.809Z,1015.32
2016-05-01T00:39:30.227Z,1015.34
2016-05-01T00:42:42.422Z,1015.24
2016-05-01T00:45:54.555Z,1015.36
2016-05-01T00:49:06.813Z,1015.32
2016-05-01T00:52:19.024Z,1015.42
2016-05-01T00:55:30.442Z,1015.32
2016-05-01T00:58:42.934Z,1015.4
2016-05-01T01:01:55.004Z,1015.34
2016-05-01T01:05:05.622Z,1015.3
2016-05-01T01:08:17.677Z,1015.5
2016-05-01T01:11:29.875Z,1015.38
2016-05-01T01:14:41.848Z,1015.46
2016-05-01T01:17:54.137Z,1015.44
2016-05-01T01:21:06.536Z,1015.58
2016-05-01T01:24:18.481Z,1015.68
2016-05-01T01:27:30.461Z,1015.78
2016-05-01T01:30:42.750Z,1015.66
2016-05-01T01:33:54.977Z,1015.68
2016-05-01T01:37:06.642Z,1015.66
2016-05-01T01:40:16.087Z,1015.64
2016-05-01T01:43:26.051Z,1015.54
2016-05-01T01:46:42.340Z,1015.34
2016-05-01T01:49:45.708Z,1015.36
2016-05-01T01:52:57.450Z,1015.5
2016-05-01T01:56:09.537Z,1015.72
2016-05-01T01:59:21.622Z,1015.62
2016-05-01T02:02:37.149Z,1015.56
2016-05-01T02:05:44.298Z,1015.74
2016-05-01T02:08:47.384Z,1015.72
2016-05-01T02:11:58.611Z,1015.7
2016-05-01T02:15:10.744Z,1015.78
2016-05-01T02:18:22.862Z,1015.76
2016-05-01T02:21:38.747Z,1015.8
2016-05-01T02:24:42.083Z,1015.8
2016-05-01T02:27:53.935Z,1015.82
2016-05-01T02:31:06.818Z,1015.76
2016-05-01T02:34:18.716Z,1015.84
2016-05-01T02:37:30.712Z,1015.86
2016-05-01T02:40:42.954Z,1015.88
2016-05-01T02:43:54.946Z,1015.96
2016-05-01T02:47:06.939Z,1015.98
2016-05-01T02:50:18.697Z,1015.98
2016-05-01T02:53:34.973Z,1016
2016-05-01T02:56:40.045Z,1016.04
2016-05-01T02:59:52.927Z,1016.04
2016-05-01T03:03:04.982Z,1016.16
2016-05-01T03:06:17.099Z,1016.26
2016-05-01T03:09:29.235Z,1016.26
2016-05-01T03:12:41.447Z,1016.22
2016-05-01T03:15:53.736Z,1016.22
2016-05-01T03:19:05.900Z,1016.26
2016-05-01T03:22:18.330Z,1016.28
2016-05-01T03:25:30.434Z,1016.32
2016-05-01T03:28:42.067Z,1016.26
2016-05-01T03:31:54.155Z,1016.32
2016-05-01T03:35:06.163Z,1016.34
2016-05-01T03:38:18.014Z,1016.36
2016-05-01T03:41:30.290Z,1016.46
2016-05-01T03:44:42.439Z,1016.42
2016-05-01T03:47:54.431Z,1016.46
2016-05-01T03:51:06.642Z,1016.54
2016-05-01T03:54:18.464Z,1016.5
2016-05-01T03:57:30.225Z,1016.54
2016-05-01T04:00:42.341Z,1016.62
2016-05-01T04:03:54.490Z,1016.62
2016-05-01T04:07:06.732Z,1016.7
2016-05-01T04:10:18.865Z,1016.62
2016-05-01T04:13:30.986Z,1016.72
2016-05-01T04:16:43.134Z,1016.76
2016-05-01T04:19:55.204Z,1016.8
2016-05-01T04:23:07.150Z,1016.85
2016-05-01T04:26:18.970Z,1016.8
2016-05-01T04:29:30.826Z,1016.82
2016-05-01T04:32:42.334Z,1016.78
2016-05-01T04:35:53.655Z,1016.83
2016-05-01T04:39:05.599Z,1016.8
2016-05-01T04:42:18.138Z,1016.8
2016-05-01T04:45:30.071Z,1016.8
2016-05-01T04:48:42.346Z,1016.85
2016-05-01T04:51:54.463Z,1016.78
2016-05-01T04:55:06.549Z,1016.85
2016-05-01T04:58:18.650Z,1016.78
2016-05-01T05:01:31.021Z,1016.83
2016-05-01T05:04:43.076Z,1016.91
2016-05-01T05:07:54.959Z,1016.78
2016-05-01T05:11:06.811Z,1016.74
2016-05-01T05:14:18.897Z,1016.78
2016-05-01T05:17:31.142Z,1016.89
2016-05-01T05:20:43.462Z,1016.89
2016-05-01T05:23:55.737Z,1016.87
2016-05-01T05:27:08.057Z,1016.83
2016-05-01T05:30:20.097Z,1016.8
2016-05-01T05:33:36.607Z,1016.74
2016-05-01T05:36:44.380Z,1016.74
2016-05-01T05:39:48.216Z,1016.78
2016-05-01T05:43:00.021Z,1016.74
2016-05-01T05:46:12.483Z,1016.74
2016-05-01T05:49:24.944Z,1016.7
2016-05-01T05:52:40.955Z,1016.68
2016-05-01T05:55:45.260Z,1016.74
2016-05-01T05:58:57.627Z,1016.62
2016-05-01T06:02:09.994Z,1016.64
2016-05-01T06:05:22.894Z,1016.68
2016-05-01T06:08:39.889Z,1016.62
2016-05-01T06:11:44.662Z,1016.64
2016-05-01T06:14:57.781Z,1016.7
2016-05-01T06:18:10.960Z,1016.74
2016-05-01T06:21:24.281Z,1016.72
2016-05-01T06:24:41.855Z,1016.68
2016-05-01T06:27:46.784Z,1016.64
2016-05-01T06:31:00.042Z,1016.64
2016-05-01T06:34:13.565Z,1016.66
2016-05-01T06:37:27.121Z,1016.66
2016-05-01T06:40:44.648Z,1016.66
2016-05-01T06:43:48.968Z,1016.66
2016-05-01T06:47:03.851Z,1016.74
2016-05-01T06:50:17.563Z,1016.68
2016-05-01T06:53:31.559Z,1016.7
2016-05-01T06:56:45.335Z,1016.62
2016-05-01T06:59:59.187Z,1016.56
2016-05-01T07:03:14.260Z,1016.52
2016-05-01T07:06:28.736Z,1016.56
2016-05-01T07:09:43.348Z,1016.5
2016-05-01T07:12:58.188Z,1016.46
2016-05-01T07:16:12.150Z,1016.44
2016-05-01T07:19:27.004Z,1016.42
2016-05-01T07:22:41.796Z,1016.42
2016-05-01T07:25:56.632Z,1016.32
2016-05-01T07:29:10.875Z,1016.28
2016-05-01T07:32:24.758Z,1016.34
2016-05-01T07:35:43.065Z,1016.32
2016-05-01T07:38:48.980Z,1016.3
2016-05-01T07:42:03.456Z,1016.28
2016-05-01T07:45:17.793Z,1016.32
2016-05-01T07:48:35.926Z,1016.4
2016-05-01T07:51:41.765Z,1016.24
2016-05-01T07:54:55.945Z,1016.18
2016-05-01T07:58:10.968Z,1016.3
2016-05-01T08:01:25.804Z,1016.22
2016-05-01T08:04:45.002Z,1016.24
2016-05-01T08:07:51.604Z,1016.3
2016-05-01T08:11:03.800Z,1016.28
2016-05-01T08:14:18.589Z,1016.36
2016-05-01T08:17:37.175Z,1016.4
2016-05-01T08:20:43.296Z,1016.34
2016-05-01T08:23:58.116Z,1016.34
2016-05-01T08:27:12.093Z,1016.32
2016-05-01T08:30:26.758Z,1016.26
2016-05-01T08:33:45.753Z,1016.22
2016-05-01T08:36:52.261Z,1016.2
2016-05-01T08:40:06.987Z,1016.02
2016-05-01T08:43:21.730Z,1016.14
2016-05-01T08:46:40.378Z,1016.18
2016-05-01T08:49:46.889Z,1016.2
2016-05-01T08:53:01.569Z,1016.02
2016-05-01T08:56:16.484Z,1015.92
2016-05-01T08:59:31.257Z,1015.8
2016-05-01T09:02:45.502Z,1015.86
2016-05-01T09:06:00.339Z,1015.86
2016-05-01T09:09:15.300Z,1015.7
2016-05-01T09:12:30.355Z,1015.72
2016-05-01T09:15:45.241Z,1015.76
2016-05-01T09:18:59.952Z,1015.92
2016-05-01T09:22:14.366Z,1016.04
2016-05-01T09:25:28.988Z,1016.32
2016-05-01T09:28:43.512Z,1016.3
2016-05-01T09:31:57.944Z,1016.28
2016-05-01T09:35:12.703Z,1016.36
2016-05-01T09:38:27.601Z,1016.42
2016-05-01T09:41:42.016Z,1016.36
2016-05-01T09:44:56.167Z,1016.66
2016-05-01T09:48:10.425Z,1017.03
2016-05-01T09:51:24.340Z,1017.19
2016-05-01T09:54:42.394Z,1017.41
2016-05-01T09:57:48.139Z,1017.47
2016-05-01T10:01:00.210Z,1017.59
2016-05-01T10:04:14.484Z,1017.49
2016-05-01T10:07:28.118Z,1017.57
2016-05-01T10:10:43.766Z,1017.61
2016-05-01T10:13:58.526Z,1017.51
2016-05-01T10:17:13.206Z,1017.57
2016-05-01T10:20:27.402Z,1017.57
2016-05-01T10:23:45.348Z,1017.67
2016-05-01T10:26:50.999Z,1017.81
2016-05-01T10:30:05.257Z,1017.71
2016-05-01T10:33:15.921Z,1017.73
2016-05-01T10:36:30.695Z,1017.93
2016-05-01T10:39:44.438Z,1017.89
2016-05-01T10:42:58.369Z,1017.81
2016-05-01T10:46:12.597Z,1017.79
2016-05-01T10:49:26.730Z,1017.81
2016-05-01T10:52:44.567Z,1017.87
2016-05-01T10:55:49.811Z,1017.79
2016-05-01T10:59:02.038Z,1017.85
2016-05-01T11:02:15.921Z,1017.81
2016-05-01T11:05:29.492Z,1017.79
2016-05-01T11:08:43.093Z,1017.83
2016-05-01T11:11:57.183Z,1017.63
2016-05-01T11:15:10.784Z,1017.71
2016-05-01T11:18:21.183Z,1017.77
2016-05-01T11:21:38.894Z,1017.83
2016-05-01T11:24:43.777Z,1017.69
2016-05-01T11:27:57.632Z,1017.73
2016-05-01T11:31:11.343Z,1017.73
2016-05-01T11:34:24.445Z,1017.75
2016-05-01T11:37:41.968Z,1017.71
2016-05-01T11:40:46.726Z,1017.85
2016-05-01T11:44:00.534Z,1017.81
2016-05-01T11:47:14.308Z,1017.79
2016-05-01T11:50:27.879Z,1017.63
2016-05-01T11:53:45.387Z,1017.77
2016-05-01T11:56:50.254Z,1017.87
2016-05-01T12:00:02.796Z,1017.71
2016-05-01T12:03:17.304Z,1017.89
2016-05-01T12:06:30.937Z,1017.89
2016-05-01T12:09:44.524Z,1017.83
2016-05-01T12:12:58.393Z,1017.89
2016-05-01T12:16:12.026Z,1017.87
2016-05-01T12:19:25.847Z,1017.83
2016-05-01T12:22:43.606Z,1017.75
2016-05-01T12:25:48.644Z,1017.69
2016-05-01T12:29:02.046Z,1017.79
2016-05-01T12:32:15.476Z,1017.79
2016-05-01T12:35:29.077Z,1017.71
2016-05-01T12:38:42.617Z,1017.77
2016-05-01T12:41:56.034Z,1017.65
2016-05-01T12:45:09.808Z,1017.55
2016-05-01T12:48:23.410Z,1017.53
2016-05-01T12:51:40.449Z,1017.53
2016-05-01T12:54:45.253Z,1017.51
2016-05-01T12:57:58.686Z,1017.67
2016-05-01T13:01:11.257Z,1017.55
2016-05-01T13:04:25.671Z,1017.71
2016-05-01T13:07:43.257Z,1017.55
2016-05-01T13:10:48.140Z,1017.51
2016-05-01T13:14:01.682Z,1017.39
2016-05-01T13:17:15.190Z,1017.41
2016-05-01T13:20:25.605Z,1017.55
2016-05-01T13:23:44.269Z,1017.49
2016-05-01T13:26:49.089Z,1017.45
2016-05-01T13:30:02.694Z,1017.51
2016-05-01T13:33:16.327Z,1017.39
2016-05-01T13:36:26.946Z,1017.59
2016-05-01T13:39:44.484Z,1017.49
2016-05-01T13:42:49.290Z,1017.57
2016-05-01T13:46:02.784Z,1017.53
2016-05-01T13:49:16.356Z,1017.57
2016-05-01T13:52:29.909Z,1017.47
2016-05-01T13:55:43.605Z,1017.47
2016-05-01T13:58:56.819Z,1017.43
2016-05-01T14:02:10.124Z,1017.49
2016-05-01T14:05:23.601Z,1017.47
2016-05-01T14:08:40.593Z,1017.41
2016-05-01T14:11:45.274Z,1017.47
2016-05-01T14:14:58.925Z,1017.43
2016-05-01T14:18:12.323Z,1017.35
2016-05-01T14:21:25.878Z,1017.45
2016-05-01T14:24:43.277Z,1017.37
2016-05-01T14:27:47.894Z,1017.37
2016-05-01T14:31:01.093Z,1017.51
2016-05-01T14:34:14.476Z,1017.55
2016-05-01T14:37:27.906Z,1017.55
2016-05-01T14:40:44.992Z,1017.55
2016-05-01T14:43:49.672Z,1017.51
2016-05-01T14:47:02.339Z,1017.59
2016-05-01T14:50:14.987Z,1017.59
2016-05-01T14:53:28.183Z,1017.75
2016-05-01T14:56:45.066Z,1017.61
2016-05-01T14:59:49.746Z,1017.67
2016-05-01T15:03:02.444Z,1017.73
2016-05-01T15:06:15.577Z,1017.69
2016-05-01T15:09:29.008Z,1017.69
2016-05-01T15:12:46.063Z,1017.69
2016-05-01T15:15:50.601Z,1017.65
2016-05-01T15:19:04.097Z,1017.71
2016-05-01T15:22:17.558Z,1017.71
2016-05-01T15:25:30.488Z,1017.65
2016-05-01T15:28:43.309Z,1017.71
2016-05-01T15:31:56.536Z,1017.67
2016-05-01T15:35:09.453Z,1017.75
2016-05-01T15:38:22.710Z,1017.75
2016-05-01T15:41:39.874Z,1017.79
2016-05-01T15:44:44.648Z,1017.75
2016-05-01T15:47:56.001Z,1017.75
2016-05-01T15:51:08.480Z,1017.69
2016-05-01T15:54:21.895Z,1017.73
2016-05-01T15:57:39.314Z,1017.87
2016-05-01T16:00:43.998Z,1017.81
2016-05-01T16:03:57.009Z,1017.89
2016-05-01T16:07:09.895Z,1017.91
2016-05-01T16:10:23.182Z,1017.81
2016-05-01T16:13:40.840Z,1017.79
2016-05-01T16:16:45.461Z,1017.79
2016-05-01T16:19:58.519Z,1017.75
2016-05-01T16:23:11.517Z,1017.71
2016-05-01T16:26:22.385Z,1017.81
2016-05-01T16:29:39.768Z,1017.77
2016-05-01T16:32:44.479Z,1017.83
2016-05-01T16:35:55.129Z,1017.71
2016-05-01T16:39:08.264Z,1017.77
2016-05-01T16:42:21.491Z,1017.77
2016-05-01T16:45:38.890Z,1017.73
2016-05-01T16:48:43.553Z,1017.77
2016-05-01T16:51:56.593Z,1017.83
2016-05-01T16:55:09.526Z,1017.85
2016-05-01T16:58:22.221Z,1017.89
2016-05-01T17:01:39.385Z,1017.93
2016-05-01T17:04:43.957Z,1017.93
2016-05-01T17:07:57.121Z,1018.03
2016-05-01T17:11:09.944Z,1017.95
2016-05-01T17:14:22.639Z,1017.95
2016-05-01T17:17:39.866Z,1017.99
2016-05-01T17:20:44.514Z,1017.93
2016-05-01T17:23:57.855Z,1017.99
2016-05-01T17:27:11.208Z,1018.07
2016-05-01T17:30:24.466Z,1018.13
2016-05-01T17:33:41.552Z,1018.23
2016-05-01T17:36:46.201Z,1018.15
2016-05-01T17:39:59.412Z,1018.11
2016-05-01T17:43:12.611Z,1018.17
2016-05-01T17:46:24.775Z,1018.24
2016-05-01T17:49:43.252Z,1018.32
2016-05-01T17:52:47.775Z,1018.38
2016-05-01T17:56:00.928Z,1018.36
2016-05-01T17:59:14.361Z,1018.36
2016-05-01T18:02:27.353Z,1018.46
2016-05-01T18:05:44.378Z,1018.48
2016-05-01T18:08:48.776Z,1018.56
2016-05-01T18:12:00.768Z,1018.64
2016-05-01T18:15:15.170Z,1018.54
2016-05-01T18:18:28.194Z,1018.8
2016-05-01T18:21:44.873Z,1018.78
2016-05-01T18:24:49.162Z,1018.72
2016-05-01T18:28:02.077Z,1018.64
2016-05-01T18:31:15.306Z,1018.84
2016-05-01T18:34:28.517Z,1018.76
2016-05-01T18:37:45.464Z,1018.92
2016-05-01T18:40:49.753Z,1018.96
2016-05-01T18:44:02.964Z,1018.94
2016-05-01T18:47:15.803Z,1018.92
2016-05-01T18:50:28.920Z,1019.02
2016-05-01T18:53:45.974Z,1019.14
2016-05-01T18:56:50.405Z,1019.2
2016-05-01T19:00:03.695Z,1019.24
2016-05-01T19:03:16.846Z,1019.22
2016-05-01T19:06:29.870Z,1019.24
2016-05-01T19:09:43.128Z,1019.24
2016-05-01T19:12:56.136Z,1019.4
2016-05-01T19:16:09.503Z,1019.38
2016-05-01T19:19:22.592Z,1019.42
2016-05-01T19:22:39.694Z,1019.56
2016-05-01T19:25:44.311Z,1019.44
2016-05-01T19:28:57.037Z,1019.52
2016-05-01T19:32:10.158Z,1019.5
2016-05-01T19:35:23.557Z,1019.58
2016-05-01T19:38:40.659Z,1019.64
2016-05-01T19:41:44.854Z,1019.64
2016-05-01T19:44:57.783Z,1019.62
2016-05-01T19:48:10.967Z,1019.68
2016-05-01T19:51:24.334Z,1019.64
2016-05-01T19:54:41.436Z,1019.76
2016-05-01T19:57:45.679Z,1019.72
2016-05-01T20:00:58.576Z,1019.76
2016-05-01T20:04:11.556Z,1019.76
2016-05-01T20:07:24.736Z,1019.76
2016-05-01T20:10:39.150Z,1019.78
2016-05-01T20:13:43.518Z,1019.72
2016-05-01T20:16:56.636Z,1019.72
2016-05-01T20:20:07.378Z,1019.7
2016-05-01T20:23:20.513Z,1019.8
2016-05-01T20:26:37.662Z,1019.64
2016-05-01T20:29:45.827Z,1019.74
2016-05-01T20:32:50.210Z,1019.78
2016-05-01T20:36:02.499Z,1019.74
2016-05-01T20:39:15.464Z,1019.7
2016-05-01T20:42:28.378Z,1019.74
2016-05-01T20:45:45.447Z,1019.74
2016-05-01T20:48:49.659Z,1019.76
2016-05-01T20:52:02.511Z,1019.8
2016-05-01T20:55:15.538Z,1019.82
2016-05-01T20:58:28.405Z,1019.78
2016-05-01T21:01:45.351Z,1019.82
2016-05-01T21:04:49.484Z,1019.9
2016-05-01T21:08:02.304Z,1019.86
2016-05-01T21:11:15.361Z,1019.86
2016-05-01T21:14:28.323Z,1019.9
2016-05-01T21:17:45.331Z,1019.82
2016-05-01T21:20:50.027Z,1019.86
2016-05-01T21:24:02.335Z,1019.9
2016-05-01T21:27:15.159Z,1019.98
2016-05-01T21:30:24.854Z,1019.96
2016-05-01T21:33:41.566Z,1020
2016-05-01T21:36:45.668Z,1019.9
2016-05-01T21:39:58.598Z,1019.96
2016-05-01T21:43:10.512Z,1019.92
2016-05-01T21:46:23.367Z,1019.92
2016-05-01T21:49:40.016Z,1020.04
2016-05-01T21:52:43.946Z,1020.04
2016-05-01T21:55:56.688Z,1020
2016-05-01T21:59:09.587Z,1020.04
2016-05-01T22:02:22.410Z,1020.08
2016-05-01T22:05:39.434Z,1020.13
2016-05-01T22:08:43.504Z,1020.11
2016-05-01T22:11:56.278Z,1020.13
2016-05-01T22:15:08.895Z,1020.02
2016-05-01T22:18:22.031Z,1020.1
2016-05-01T22:21:39.008Z,1020.08
2016-05-01T22:24:47.032Z,1019.94
2016-05-01T22:27:51.118Z,1019.98
2016-05-01T22:31:04.095Z,1020.02
2016-05-01T22:34:16.402Z,1020.06
2016-05-01T22:37:29.317Z,1020.04
2016-05-01T22:40:46.215Z,1020.13
2016-05-01T22:43:50.286Z,1020.17
2016-05-01T22:47:03.153Z,1020.17
2016-05-01T22:50:16.256Z,1020.19
2016-05-01T22:53:29.266Z,1020.23
2016-05-01T22:56:46.274Z,1020.27
2016-05-01T22:59:50.266Z,1020.29
2016-05-01T23:03:03.290Z,1020.15
2016-05-01T23:06:16.064Z,1020.19
2016-05-01T23:09:29.059Z,1020.11
2016-05-01T23:12:45.552Z,1020.13
2016-05-01T23:15:49.606Z,1020.11
2016-05-01T23:19:02.475Z,1020.19
2016-05-01T23:22:15.435Z,1020.11
2016-05-01T23:25:27.056Z,1020.1
2016-05-01T23:28:44.797Z,1020.21
2016-05-01T23:31:48.837Z,1020.19
2016-05-01T23:35:01.704Z,1020.23
2016-05-01T23:38:14.384Z,1020.17
2016-05-01T23:41:27.286Z,1020.17
2016-05-01T23:44:44.090Z,1020.13
2016-05-01T23:47:47.927Z,1020.13
2016-05-01T23:51:00.717Z,1020.1
2016-05-01T23:54:13.239Z,1020.11
2016-05-01T23:57:26.157Z,1020.1
